sensor_id;sensor_type;location;lat;lon;timestamp;P1;durP1;ratioP1;P2;durP2;ratioP2
69197;SDS011;56311;50.298;8.514;2024-03-22T00:00:00;32.6;;;21.8;;
69197;SDS011;56311;50.298;8.514;2024-03-22T00:02:00;33.1;;;22.2;;
69197;SDS011;56311;50.298;8.514;2024-03-22T00:04:00;31.8;;;22.5;;
69197;SDS011;56311;50.298;8.514;2024-03-22T00:06:00;36.1;;;22.5;;
69197;SDS011;56311;50.298;8.514;2024-03-22T00:08:00;33.0;;;22.4;;
69197;SDS011;56311;50.298;8.514;2024-03-22T00:10:00;32.0;;;21.5;;
69197;SDS011;56311;50.298;8.514;2024-03-22T00:12:00;32.8;;;22.1;;
69197;SDS011;56311;50.298;8.514;2024-03-22T00:14:00;32.6;;;22.0;;
69197;SDS011;56311;50.298;8.514;2024-03-22T00:16:00;33.6;;;22.4;;
69197;SDS011;56311;50.298;8.514;2024-03-22T00:18:00;33.4;;;22.4;;
69197;SDS011;56311;50.298;8.514;2024-03-22T00:20:00;32.4;;;21.9;;
69197;SDS011;56311;50.298;8.514;2024-03-22T00:22:00;34.6;;;21.4;;
69197;SDS011;56311;50.298;8.514;2024-03-22T00:24:00;34.0;;;21.9;;
69197;SDS011;56311;50.298;8.514;2024-03-22T00:26:00;32.9;;;22.1;;
69197;SDS011;56311;50.298;8.514;2024-03-22T00:28:00;30.9;;;21.3;;
69197;SDS011;56311;50.298;8.514;2024-03-22T00:30:00;31.1;;;21.3;;
69197;SDS011;56311;50.298;8.514;2024-03-22T00:32:01;30.6;;;21.1;;
69197;SDS011;56311;50.298;8.514;2024-03-22T00:34:00;33.9;;;21.8;;
69197;SDS011;56311;50.298;8.514;2024-03-22T00:36:00;31.6;;;21.2;;
69197;SDS011;56311;50.298;8.514;2024-03-22T00:38:00;33.8;;;21.0;;
69197;SDS011;56311;50.298;8.514;2024-03-22T00:40:00;30.4;;;20.1;;
69197;SDS011;56311;50.298;8.514;2024-03-22T00:42:00;31.3;;;20.7;;
69197;SDS011;56311;50.298;8.514;2024-03-22T00:44:00;30.5;;;19.4;;
69197;SDS011;56311;50.298;8.514;2024-03-22T00:46:00;30.8;;;20.0;;
69197;SDS011;56311;50.298;8.514;2024-03-22T00:48:00;31.3;;;20.1;;
69197;SDS011;56311;50.298;8.514;2024-03-22T00:50:01;31.5;;;19.9;;
69197;SDS011;56311;50.298;8.514;2024-03-22T00:52:00;32.0;;;20.2;;
69197;SDS011;56311;50.298;8.514;2024-03-22T00:54:00;30.1;;;19.8;;
69197;SDS011;56311;50.298;8.514;2024-03-22T00:56:00;31.7;;;19.8;;
69197;SDS011;56311;50.298;8.514;2024-03-22T00:58:00;32.0;;;19.6;;
69197;SDS011;56311;50.298;8.514;2024-03-22T01:00:00;29.5;;;19.4;;
69197;SDS011;56311;50.298;8.514;2024-03-22T01:02:00;32.7;;;20.3;;
69197;SDS011;56311;50.298;8.514;2024-03-22T01:04:00;30.1;;;20.3;;
69197;SDS011;56311;50.298;8.514;2024-03-22T01:06:00;30.8;;;21.0;;
69197;SDS011;56311;50.298;8.514;2024-03-22T01:08:00;30.9;;;20.3;;
69197;SDS011;56311;50.298;8.514;2024-03-22T01:10:00;30.3;;;20.1;;
69197;SDS011;56311;50.298;8.514;2024-03-22T01:12:00;29.7;;;19.0;;
69197;SDS011;56311;50.298;8.514;2024-03-22T01:14:00;29.3;;;19.6;;
69197;SDS011;56311;50.298;8.514;2024-03-22T01:16:00;30.4;;;19.4;;
69197;SDS011;56311;50.298;8.514;2024-03-22T01:18:01;31.2;;;19.4;;
69197;SDS011;56311;50.298;8.514;2024-03-22T01:20:00;30.2;;;19.6;;
69197;SDS011;56311;50.298;8.514;2024-03-22T01:22:00;31.1;;;20.1;;
69197;SDS011;56311;50.298;8.514;2024-03-22T01:24:00;31.5;;;19.6;;
69197;SDS011;56311;50.298;8.514;2024-03-22T01:26:00;30.2;;;19.3;;
69197;SDS011;56311;50.298;8.514;2024-03-22T01:28:00;30.8;;;19.2;;
69197;SDS011;56311;50.298;8.514;2024-03-22T01:30:00;30.0;;;18.9;;
69197;SDS011;56311;50.298;8.514;2024-03-22T01:32:00;28.9;;;17.8;;
69197;SDS011;56311;50.298;8.514;2024-03-22T01:34:00;30.3;;;18.3;;
69197;SDS011;56311;50.298;8.514;2024-03-22T01:36:00;32.1;;;19.3;;
69197;SDS011;56311;50.298;8.514;2024-03-22T01:38:00;28.5;;;18.2;;
69197;SDS011;56311;50.298;8.514;2024-03-22T01:40:00;29.6;;;19.1;;
69197;SDS011;56311;50.298;8.514;2024-03-22T01:42:00;30.9;;;19.0;;
69197;SDS011;56311;50.298;8.514;2024-03-22T01:44:00;30.3;;;17.8;;
69197;SDS011;56311;50.298;8.514;2024-03-22T01:46:00;28.9;;;18.4;;
69197;SDS011;56311;50.298;8.514;2024-03-22T01:48:00;28.0;;;17.3;;
69197;SDS011;56311;50.298;8.514;2024-03-22T01:50:00;27.9;;;17.4;;
69197;SDS011;56311;50.298;8.514;2024-03-22T01:52:00;27.8;;;17.3;;
69197;SDS011;56311;50.298;8.514;2024-03-22T01:54:01;28.7;;;17.9;;
69197;SDS011;56311;50.298;8.514;2024-03-22T01:56:00;28.1;;;17.7;;
69197;SDS011;56311;50.298;8.514;2024-03-22T01:58:00;31.3;;;18.0;;
69197;SDS011;56311;50.298;8.514;2024-03-22T02:00:00;27.1;;;17.2;;
69197;SDS011;56311;50.298;8.514;2024-03-22T02:02:00;29.6;;;18.3;;
69197;SDS011;56311;50.298;8.514;2024-03-22T02:04:00;29.6;;;18.4;;
69197;SDS011;56311;50.298;8.514;2024-03-22T02:06:00;29.2;;;17.4;;
69197;SDS011;56311;50.298;8.514;2024-03-22T02:08:00;29.6;;;18.3;;
69197;SDS011;56311;50.298;8.514;2024-03-22T02:10:00;30.3;;;17.7;;
69197;SDS011;56311;50.298;8.514;2024-03-22T02:12:00;30.6;;;18.4;;
69197;SDS011;56311;50.298;8.514;2024-03-22T02:14:00;30.2;;;18.4;;
69197;SDS011;56311;50.298;8.514;2024-03-22T02:16:02;31.0;;;17.9;;
69197;SDS011;56311;50.298;8.514;2024-03-22T02:18:00;29.2;;;17.8;;
69197;SDS011;56311;50.298;8.514;2024-03-22T02:20:00;30.2;;;17.2;;
69197;SDS011;56311;50.298;8.514;2024-03-22T02:22:00;29.0;;;16.8;;
69197;SDS011;56311;50.298;8.514;2024-03-22T02:24:00;29.9;;;17.9;;
69197;SDS011;56311;50.298;8.514;2024-03-22T02:26:00;32.1;;;17.2;;
69197;SDS011;56311;50.298;8.514;2024-03-22T02:28:00;27.7;;;17.2;;
69197;SDS011;56311;50.298;8.514;2024-03-22T02:30:00;30.5;;;18.1;;
69197;SDS011;56311;50.298;8.514;2024-03-22T02:32:00;29.8;;;17.4;;
69197;SDS011;56311;50.298;8.514;2024-03-22T02:34:00;29.8;;;16.9;;
69197;SDS011;56311;50.298;8.514;2024-03-22T02:36:00;30.3;;;17.1;;
69197;SDS011;56311;50.298;8.514;2024-03-22T02:38:00;27.9;;;16.6;;
69197;SDS011;56311;50.298;8.514;2024-03-22T02:40:00;29.8;;;17.5;;
69197;SDS011;56311;50.298;8.514;2024-03-22T02:42:00;30.9;;;17.6;;
69197;SDS011;56311;50.298;8.514;2024-03-22T02:44:00;28.2;;;16.3;;
69197;SDS011;56311;50.298;8.514;2024-03-22T02:46:00;27.6;;;16.4;;
69197;SDS011;56311;50.298;8.514;2024-03-22T02:48:00;26.9;;;16.2;;
69197;SDS011;56311;50.298;8.514;2024-03-22T02:50:00;28.0;;;16.5;;
69197;SDS011;56311;50.298;8.514;2024-03-22T02:52:00;25.7;;;15.2;;
69197;SDS011;56311;50.298;8.514;2024-03-22T02:54:00;24.4;;;14.8;;
69197;SDS011;56311;50.298;8.514;2024-03-22T02:56:00;27.9;;;14.9;;
69197;SDS011;56311;50.298;8.514;2024-03-22T02:58:00;23.5;;;13.9;;
69197;SDS011;56311;50.298;8.514;2024-03-22T03:00:00;25.7;;;13.9;;
69197;SDS011;56311;50.298;8.514;2024-03-22T03:02:00;25.3;;;13.9;;
69197;SDS011;56311;50.298;8.514;2024-03-22T03:04:00;22.0;;;12.2;;
69197;SDS011;56311;50.298;8.514;2024-03-22T03:06:00;23.0;;;13.1;;
69197;SDS011;56311;50.298;8.514;2024-03-22T03:08:00;23.4;;;12.9;;
69197;SDS011;56311;50.298;8.514;2024-03-22T03:10:00;22.3;;;12.8;;
69197;SDS011;56311;50.298;8.514;2024-03-22T03:12:00;22.9;;;12.7;;
69197;SDS011;56311;50.298;8.514;2024-03-22T03:14:00;23.0;;;12.7;;
69197;SDS011;56311;50.298;8.514;2024-03-22T03:16:01;21.8;;;12.7;;
69197;SDS011;56311;50.298;8.514;2024-03-22T03:18:00;21.8;;;12.6;;
69197;SDS011;56311;50.298;8.514;2024-03-22T03:20:00;24.2;;;12.2;;
69197;SDS011;56311;50.298;8.514;2024-03-22T03:22:00;20.6;;;12.1;;
69197;SDS011;56311;50.298;8.514;2024-03-22T03:24:00;20.3;;;11.6;;
69197;SDS011;56311;50.298;8.514;2024-03-22T03:26:00;22.1;;;12.1;;
69197;SDS011;56311;50.298;8.514;2024-03-22T03:28:00;22.3;;;12.0;;
69197;SDS011;56311;50.298;8.514;2024-03-22T03:30:00;21.8;;;11.6;;
69197;SDS011;56311;50.298;8.514;2024-03-22T03:32:00;20.0;;;10.9;;
69197;SDS011;56311;50.298;8.514;2024-03-22T03:34:00;21.0;;;11.6;;
69197;SDS011;56311;50.298;8.514;2024-03-22T03:36:00;19.1;;;10.8;;
69197;SDS011;56311;50.298;8.514;2024-03-22T03:38:00;18.0;;;11.0;;
69197;SDS011;56311;50.298;8.514;2024-03-22T03:40:01;17.7;;;10.4;;
69197;SDS011;56311;50.298;8.514;2024-03-22T03:42:00;20.7;;;10.2;;
69197;SDS011;56311;50.298;8.514;2024-03-22T03:44:00;17.3;;;10.4;;
69197;SDS011;56311;50.298;8.514;2024-03-22T03:46:00;17.5;;;9.8;;
69197;SDS011;56311;50.298;8.514;2024-03-22T03:48:00;18.1;;;9.9;;
69197;SDS011;56311;50.298;8.514;2024-03-22T03:50:00;16.8;;;9.5;;
69197;SDS011;56311;50.298;8.514;2024-03-22T03:52:00;17.8;;;10.1;;
69197;SDS011;56311;50.298;8.514;2024-03-22T03:54:00;17.4;;;9.6;;
69197;SDS011;56311;50.298;8.514;2024-03-22T03:56:00;16.7;;;9.4;;
69197;SDS011;56311;50.298;8.514;2024-03-22T03:58:00;17.8;;;9.3;;
69197;SDS011;56311;50.298;8.514;2024-03-22T04:00:00;17.5;;;9.0;;
69197;SDS011;56311;50.298;8.514;2024-03-22T04:02:00;16.4;;;9.2;;
69197;SDS011;56311;50.298;8.514;2024-03-22T04:04:00;18.6;;;9.6;;
69197;SDS011;56311;50.298;8.514;2024-03-22T04:06:00;14.8;;;8.6;;
69197;SDS011;56311;50.298;8.514;2024-03-22T04:08:00;16.5;;;8.6;;
69197;SDS011;56311;50.298;8.514;2024-03-22T04:10:00;16.8;;;9.1;;
69197;SDS011;56311;50.298;8.514;2024-03-22T04:12:00;15.3;;;8.3;;
69197;SDS011;56311;50.298;8.514;2024-03-22T04:14:00;14.8;;;7.8;;
69197;SDS011;56311;50.298;8.514;2024-03-22T04:16:00;15.6;;;8.2;;
69197;SDS011;56311;50.298;8.514;2024-03-22T04:18:00;15.7;;;8.0;;
69197;SDS011;56311;50.298;8.514;2024-03-22T04:20:00;15.1;;;8.2;;
69197;SDS011;56311;50.298;8.514;2024-03-22T04:22:00;15.4;;;7.7;;
69197;SDS011;56311;50.298;8.514;2024-03-22T04:24:00;15.8;;;7.7;;
69197;SDS011;56311;50.298;8.514;2024-03-22T04:26:01;14.9;;;7.7;;
69197;SDS011;56311;50.298;8.514;2024-03-22T04:28:00;13.6;;;7.7;;
69197;SDS011;56311;50.298;8.514;2024-03-22T04:30:00;15.5;;;8.5;;
69197;SDS011;56311;50.298;8.514;2024-03-22T04:32:00;14.7;;;8.3;;
69197;SDS011;56311;50.298;8.514;2024-03-22T04:34:00;15.4;;;8.0;;
69197;SDS011;56311;50.298;8.514;2024-03-22T04:36:01;15.0;;;7.9;;
69197;SDS011;56311;50.298;8.514;2024-03-22T04:38:00;14.5;;;7.7;;
69197;SDS011;56311;50.298;8.514;2024-03-22T04:40:00;16.9;;;8.4;;
69197;SDS011;56311;50.298;8.514;2024-03-22T04:42:00;14.6;;;7.6;;
69197;SDS011;56311;50.298;8.514;2024-03-22T04:44:00;14.6;;;8.0;;
69197;SDS011;56311;50.298;8.514;2024-03-22T04:46:00;14.0;;;7.7;;
69197;SDS011;56311;50.298;8.514;2024-03-22T04:48:01;15.9;;;7.9;;
69197;SDS011;56311;50.298;8.514;2024-03-22T04:50:00;15.4;;;7.9;;
69197;SDS011;56311;50.298;8.514;2024-03-22T04:52:00;13.1;;;7.5;;
69197;SDS011;56311;50.298;8.514;2024-03-22T04:54:00;14.4;;;7.8;;
69197;SDS011;56311;50.298;8.514;2024-03-22T04:56:00;14.3;;;7.2;;
69197;SDS011;56311;50.298;8.514;2024-03-22T04:58:00;15.4;;;7.2;;
69197;SDS011;56311;50.298;8.514;2024-03-22T05:00:00;13.6;;;7.1;;
69197;SDS011;56311;50.298;8.514;2024-03-22T05:02:00;13.0;;;7.2;;
69197;SDS011;56311;50.298;8.514;2024-03-22T05:04:00;14.6;;;7.4;;
69197;SDS011;56311;50.298;8.514;2024-03-22T05:06:00;13.5;;;7.0;;
69197;SDS011;56311;50.298;8.514;2024-03-22T05:08:00;13.5;;;7.6;;
69197;SDS011;56311;50.298;8.514;2024-03-22T05:10:00;13.1;;;7.2;;
69197;SDS011;56311;50.298;8.514;2024-03-22T05:12:00;12.7;;;7.1;;
69197;SDS011;56311;50.298;8.514;2024-03-22T05:14:00;14.3;;;7.0;;
69197;SDS011;56311;50.298;8.514;2024-03-22T05:16:00;13.8;;;7.2;;
69197;SDS011;56311;50.298;8.514;2024-03-22T05:18:00;16.0;;;7.9;;
69197;SDS011;56311;50.298;8.514;2024-03-22T05:20:00;14.4;;;7.6;;
69197;SDS011;56311;50.298;8.514;2024-03-22T05:22:00;14.5;;;7.5;;
69197;SDS011;56311;50.298;8.514;2024-03-22T05:24:00;17.1;;;7.9;;
69197;SDS011;56311;50.298;8.514;2024-03-22T05:26:00;14.6;;;7.1;;
69197;SDS011;56311;50.298;8.514;2024-03-22T05:28:00;14.6;;;7.4;;
69197;SDS011;56311;50.298;8.514;2024-03-22T05:30:00;14.2;;;7.4;;
69197;SDS011;56311;50.298;8.514;2024-03-22T05:32:00;12.9;;;6.9;;
69197;SDS011;56311;50.298;8.514;2024-03-22T05:34:00;14.1;;;6.9;;
69197;SDS011;56311;50.298;8.514;2024-03-22T05:36:00;11.7;;;6.0;;
69197;SDS011;56311;50.298;8.514;2024-03-22T05:38:00;10.4;;;5.3;;
69197;SDS011;56311;50.298;8.514;2024-03-22T05:40:00;11.0;;;5.2;;
69197;SDS011;56311;50.298;8.514;2024-03-22T05:42:00;8.0;;;3.8;;
69197;SDS011;56311;50.298;8.514;2024-03-22T05:44:00;7.2;;;3.6;;
69197;SDS011;56311;50.298;8.514;2024-03-22T05:46:00;7.1;;;3.6;;
69197;SDS011;56311;50.298;8.514;2024-03-22T05:48:00;8.0;;;3.6;;
69197;SDS011;56311;50.298;8.514;2024-03-22T05:50:00;6.9;;;3.3;;
69197;SDS011;56311;50.298;8.514;2024-03-22T05:52:00;8.1;;;3.6;;
69197;SDS011;56311;50.298;8.514;2024-03-22T05:54:00;7.4;;;3.1;;
69197;SDS011;56311;50.298;8.514;2024-03-22T05:56:00;6.8;;;3.0;;
69197;SDS011;56311;50.298;8.514;2024-03-22T05:58:00;6.0;;;2.8;;
69197;SDS011;56311;50.298;8.514;2024-03-22T06:00:01;6.1;;;2.8;;
69197;SDS011;56311;50.298;8.514;2024-03-22T06:02:00;6.1;;;2.6;;
69197;SDS011;56311;50.298;8.514;2024-03-22T06:04:00;6.3;;;2.8;;
69197;SDS011;56311;50.298;8.514;2024-03-22T06:06:00;5.5;;;2.7;;
69197;SDS011;56311;50.298;8.514;2024-03-22T06:08:00;8.7;;;2.9;;
69197;SDS011;56311;50.298;8.514;2024-03-22T06:10:00;6.1;;;2.5;;
69197;SDS011;56311;50.298;8.514;2024-03-22T06:12:00;6.7;;;2.7;;
69197;SDS011;56311;50.298;8.514;2024-03-22T06:14:00;5.6;;;2.5;;
69197;SDS011;56311;50.298;8.514;2024-03-22T06:16:00;7.6;;;2.7;;
69197;SDS011;56311;50.298;8.514;2024-03-22T06:18:00;6.6;;;2.7;;
69197;SDS011;56311;50.298;8.514;2024-03-22T06:20:00;6.9;;;2.9;;
69197;SDS011;56311;50.298;8.514;2024-03-22T06:22:00;6.4;;;2.7;;
69197;SDS011;56311;50.298;8.514;2024-03-22T06:24:00;6.0;;;2.5;;
69197;SDS011;56311;50.298;8.514;2024-03-22T06:26:00;7.1;;;2.7;;
69197;SDS011;56311;50.298;8.514;2024-03-22T06:28:00;7.2;;;2.8;;
69197;SDS011;56311;50.298;8.514;2024-03-22T06:30:00;5.7;;;2.5;;
69197;SDS011;56311;50.298;8.514;2024-03-22T06:32:00;7.2;;;2.6;;
69197;SDS011;56311;50.298;8.514;2024-03-22T06:34:00;5.9;;;2.4;;
69197;SDS011;56311;50.298;8.514;2024-03-22T06:36:00;6.0;;;2.5;;
69197;SDS011;56311;50.298;8.514;2024-03-22T06:38:00;6.3;;;2.5;;
69197;SDS011;56311;50.298;8.514;2024-03-22T06:40:00;6.5;;;2.5;;
69197;SDS011;56311;50.298;8.514;2024-03-22T06:42:00;7.3;;;2.6;;
69197;SDS011;56311;50.298;8.514;2024-03-22T06:44:00;6.2;;;2.5;;
69197;SDS011;56311;50.298;8.514;2024-03-22T06:46:00;5.1;;;2.2;;
69197;SDS011;56311;50.298;8.514;2024-03-22T06:48:00;5.0;;;2.2;;
69197;SDS011;56311;50.298;8.514;2024-03-22T06:50:00;5.7;;;2.2;;
69197;SDS011;56311;50.298;8.514;2024-03-22T06:52:00;6.2;;;2.1;;
69197;SDS011;56311;50.298;8.514;2024-03-22T06:54:00;6.3;;;2.5;;
69197;SDS011;56311;50.298;8.514;2024-03-22T06:56:00;5.2;;;2.0;;
69197;SDS011;56311;50.298;8.514;2024-03-22T06:58:00;5.0;;;2.1;;
69197;SDS011;56311;50.298;8.514;2024-03-22T07:00:00;5.8;;;2.3;;
69197;SDS011;56311;50.298;8.514;2024-03-22T07:02:00;6.1;;;2.3;;
69197;SDS011;56311;50.298;8.514;2024-03-22T07:04:00;4.8;;;1.9;;
69197;SDS011;56311;50.298;8.514;2024-03-22T07:06:00;5.6;;;1.9;;
69197;SDS011;56311;50.298;8.514;2024-03-22T07:08:00;6.1;;;2.0;;
69197;SDS011;56311;50.298;8.514;2024-03-22T07:10:00;4.6;;;1.8;;
69197;SDS011;56311;50.298;8.514;2024-03-22T07:12:00;6.5;;;2.3;;
69197;SDS011;56311;50.298;8.514;2024-03-22T07:14:00;5.5;;;1.9;;
69197;SDS011;56311;50.298;8.514;2024-03-22T07:16:00;5.5;;;1.9;;
69197;SDS011;56311;50.298;8.514;2024-03-22T07:18:00;5.3;;;1.9;;
69197;SDS011;56311;50.298;8.514;2024-03-22T07:20:00;5.9;;;2.2;;
69197;SDS011;56311;50.298;8.514;2024-03-22T07:22:00;7.4;;;2.1;;
69197;SDS011;56311;50.298;8.514;2024-03-22T07:24:00;4.6;;;1.8;;
69197;SDS011;56311;50.298;8.514;2024-03-22T07:26:00;5.1;;;2.2;;
69197;SDS011;56311;50.298;8.514;2024-03-22T07:28:00;4.5;;;1.7;;
69197;SDS011;56311;50.298;8.514;2024-03-22T07:30:00;5.2;;;1.9;;
69197;SDS011;56311;50.298;8.514;2024-03-22T07:32:00;5.4;;;2.3;;
69197;SDS011;56311;50.298;8.514;2024-03-22T07:34:00;6.3;;;2.4;;
69197;SDS011;56311;50.298;8.514;2024-03-22T07:36:01;7.5;;;2.6;;
69197;SDS011;56311;50.298;8.514;2024-03-22T07:38:00;6.8;;;2.5;;
69197;SDS011;56311;50.298;8.514;2024-03-22T07:40:00;13.0;;;8.7;;
69197;SDS011;56311;50.298;8.514;2024-03-22T07:42:00;36.8;;;29.0;;
69197;SDS011;56311;50.298;8.514;2024-03-22T07:44:01;7.5;;;3.6;;
69197;SDS011;56311;50.298;8.514;2024-03-22T07:46:00;6.6;;;2.8;;
69197;SDS011;56311;50.298;8.514;2024-03-22T07:48:00;7.1;;;2.3;;
69197;SDS011;56311;50.298;8.514;2024-03-22T07:50:00;7.3;;;2.7;;
69197;SDS011;56311;50.298;8.514;2024-03-22T07:52:00;6.0;;;2.6;;
69197;SDS011;56311;50.298;8.514;2024-03-22T07:54:00;7.7;;;2.9;;
69197;SDS011;56311;50.298;8.514;2024-03-22T07:56:00;7.3;;;2.9;;
69197;SDS011;56311;50.298;8.514;2024-03-22T07:58:00;6.5;;;2.9;;
69197;SDS011;56311;50.298;8.514;2024-03-22T08:00:00;6.3;;;3.4;;
69197;SDS011;56311;50.298;8.514;2024-03-22T08:02:01;7.4;;;3.7;;
69197;SDS011;56311;50.298;8.514;2024-03-22T08:04:00;8.2;;;4.1;;
69197;SDS011;56311;50.298;8.514;2024-03-22T08:06:00;8.1;;;3.9;;
69197;SDS011;56311;50.298;8.514;2024-03-22T08:08:00;7.9;;;4.3;;
69197;SDS011;56311;50.298;8.514;2024-03-22T08:10:00;8.2;;;3.9;;
69197;SDS011;56311;50.298;8.514;2024-03-22T08:12:00;8.9;;;5.1;;
69197;SDS011;56311;50.298;8.514;2024-03-22T08:14:01;10.1;;;4.9;;
69197;SDS011;56311;50.298;8.514;2024-03-22T08:16:00;9.2;;;6.1;;
69197;SDS011;56311;50.298;8.514;2024-03-22T08:18:00;9.6;;;4.9;;
69197;SDS011;56311;50.298;8.514;2024-03-22T08:20:00;10.7;;;7.6;;
69197;SDS011;56311;50.298;8.514;2024-03-22T08:22:00;13.5;;;8.2;;
69197;SDS011;56311;50.298;8.514;2024-03-22T08:24:00;11.6;;;5.9;;
69197;SDS011;56311;50.298;8.514;2024-03-22T08:26:00;10.4;;;6.5;;
69197;SDS011;56311;50.298;8.514;2024-03-22T08:28:01;11.8;;;6.7;;
69197;SDS011;56311;50.298;8.514;2024-03-22T08:30:00;9.9;;;5.8;;
69197;SDS011;56311;50.298;8.514;2024-03-22T08:32:00;12.4;;;7.2;;
69197;SDS011;56311;50.298;8.514;2024-03-22T08:34:00;11.6;;;6.1;;
69197;SDS011;56311;50.298;8.514;2024-03-22T08:36:00;10.4;;;7.1;;
69197;SDS011;56311;50.298;8.514;2024-03-22T08:38:00;10.9;;;5.9;;
69197;SDS011;56311;50.298;8.514;2024-03-22T08:40:00;10.2;;;5.6;;
69197;SDS011;56311;50.298;8.514;2024-03-22T08:42:00;11.0;;;5.6;;
69197;SDS011;56311;50.298;8.514;2024-03-22T08:44:00;11.8;;;5.5;;
69197;SDS011;56311;50.298;8.514;2024-03-22T08:46:00;10.0;;;5.2;;
69197;SDS011;56311;50.298;8.514;2024-03-22T08:48:00;9.0;;;4.8;;
69197;SDS011;56311;50.298;8.514;2024-03-22T08:50:00;12.7;;;8.0;;
69197;SDS011;56311;50.298;8.514;2024-03-22T08:52:00;9.2;;;4.3;;
69197;SDS011;56311;50.298;8.514;2024-03-22T08:54:00;7.3;;;4.0;;
69197;SDS011;56311;50.298;8.514;2024-03-22T08:56:00;14.1;;;8.7;;
69197;SDS011;56311;50.298;8.514;2024-03-22T08:58:00;11.8;;;7.1;;
69197;SDS011;56311;50.298;8.514;2024-03-22T09:00:00;9.9;;;5.7;;
69197;SDS011;56311;50.298;8.514;2024-03-22T09:02:00;20.0;;;13.1;;
69197;SDS011;56311;50.298;8.514;2024-03-22T09:04:00;22.6;;;12.8;;
69197;SDS011;56311;50.298;8.514;2024-03-22T09:06:00;12.0;;;6.2;;
69197;SDS011;56311;50.298;8.514;2024-03-22T09:08:00;8.7;;;4.8;;
69197;SDS011;56311;50.298;8.514;2024-03-22T09:10:00;9.9;;;5.3;;
69197;SDS011;56311;50.298;8.514;2024-03-22T09:12:00;22.4;;;12.4;;
69197;SDS011;56311;50.298;8.514;2024-03-22T09:14:00;20.9;;;12.1;;
69197;SDS011;56311;50.298;8.514;2024-03-22T09:16:00;51.5;;;30.5;;
69197;SDS011;56311;50.298;8.514;2024-03-22T09:18:00;12.3;;;6.2;;
69197;SDS011;56311;50.298;8.514;2024-03-22T09:20:00;21.7;;;13.9;;
69197;SDS011;56311;50.298;8.514;2024-03-22T09:22:00;12.2;;;7.8;;
69197;SDS011;56311;50.298;8.514;2024-03-22T09:24:00;13.5;;;7.9;;
69197;SDS011;56311;50.298;8.514;2024-03-22T09:26:00;13.5;;;8.4;;
69197;SDS011;56311;50.298;8.514;2024-03-22T09:28:00;13.6;;;8.6;;
69197;SDS011;56311;50.298;8.514;2024-03-22T09:30:00;14.8;;;9.1;;
69197;SDS011;56311;50.298;8.514;2024-03-22T09:32:00;16.5;;;10.0;;
69197;SDS011;56311;50.298;8.514;2024-03-22T09:34:00;25.5;;;16.0;;
69197;SDS011;56311;50.298;8.514;2024-03-22T09:36:00;15.1;;;8.7;;
69197;SDS011;56311;50.298;8.514;2024-03-22T09:38:00;16.6;;;8.5;;
69197;SDS011;56311;50.298;8.514;2024-03-22T09:40:01;12.4;;;7.6;;
69197;SDS011;56311;50.298;8.514;2024-03-22T09:42:00;15.6;;;9.4;;
69197;SDS011;56311;50.298;8.514;2024-03-22T09:44:00;17.8;;;11.0;;
69197;SDS011;56311;50.298;8.514;2024-03-22T09:46:00;12.8;;;8.2;;
69197;SDS011;56311;50.298;8.514;2024-03-22T09:48:00;14.2;;;8.9;;
69197;SDS011;56311;50.298;8.514;2024-03-22T09:50:00;13.8;;;8.3;;
69197;SDS011;56311;50.298;8.514;2024-03-22T09:52:00;13.4;;;8.6;;
69197;SDS011;56311;50.298;8.514;2024-03-22T09:54:00;19.4;;;11.6;;
69197;SDS011;56311;50.298;8.514;2024-03-22T09:56:00;14.2;;;8.7;;
69197;SDS011;56311;50.298;8.514;2024-03-22T09:58:00;15.1;;;9.9;;
69197;SDS011;56311;50.298;8.514;2024-03-22T10:00:00;16.6;;;11.8;;
69197;SDS011;56311;50.298;8.514;2024-03-22T10:02:00;20.7;;;12.1;;
69197;SDS011;56311;50.298;8.514;2024-03-22T10:04:00;18.7;;;10.9;;
69197;SDS011;56311;50.298;8.514;2024-03-22T10:06:00;15.0;;;10.8;;
69197;SDS011;56311;50.298;8.514;2024-03-22T10:08:00;18.2;;;10.1;;
69197;SDS011;56311;50.298;8.514;2024-03-22T10:10:01;15.9;;;8.8;;
69197;SDS011;56311;50.298;8.514;2024-03-22T10:12:00;14.3;;;9.1;;
69197;SDS011;56311;50.298;8.514;2024-03-22T10:14:00;15.3;;;8.8;;
69197;SDS011;56311;50.298;8.514;2024-03-22T10:16:00;14.7;;;9.2;;
69197;SDS011;56311;50.298;8.514;2024-03-22T10:18:00;15.3;;;8.5;;
69197;SDS011;56311;50.298;8.514;2024-03-22T10:20:00;13.7;;;8.2;;
69197;SDS011;56311;50.298;8.514;2024-03-22T10:22:01;15.1;;;8.7;;
69197;SDS011;56311;50.298;8.514;2024-03-22T10:24:00;12.2;;;8.2;;
69197;SDS011;56311;50.298;8.514;2024-03-22T10:26:00;13.6;;;8.3;;
69197;SDS011;56311;50.298;8.514;2024-03-22T10:28:01;16.3;;;9.8;;
69197;SDS011;56311;50.298;8.514;2024-03-22T10:30:00;17.6;;;14.1;;
69197;SDS011;56311;50.298;8.514;2024-03-22T10:32:00;12.8;;;8.0;;
69197;SDS011;56311;50.298;8.514;2024-03-22T10:34:00;13.0;;;7.6;;
69197;SDS011;56311;50.298;8.514;2024-03-22T10:36:00;11.2;;;7.4;;
69197;SDS011;56311;50.298;8.514;2024-03-22T10:38:00;11.5;;;7.1;;
69197;SDS011;56311;50.298;8.514;2024-03-22T10:40:01;10.9;;;7.0;;
69197;SDS011;56311;50.298;8.514;2024-03-22T10:42:00;18.4;;;7.7;;
69197;SDS011;56311;50.298;8.514;2024-03-22T10:44:00;11.9;;;7.8;;
69197;SDS011;56311;50.298;8.514;2024-03-22T10:46:01;12.8;;;7.0;;
69197;SDS011;56311;50.298;8.514;2024-03-22T10:48:00;15.5;;;7.7;;
69197;SDS011;56311;50.298;8.514;2024-03-22T10:50:03;11.3;;;6.6;;
69197;SDS011;56311;50.298;8.514;2024-03-22T10:52:01;12.6;;;6.7;;
69197;SDS011;56311;50.298;8.514;2024-03-22T10:54:00;13.7;;;6.9;;
69197;SDS011;56311;50.298;8.514;2024-03-22T10:56:00;9.0;;;6.1;;
69197;SDS011;56311;50.298;8.514;2024-03-22T10:58:01;12.0;;;7.8;;
69197;SDS011;56311;50.298;8.514;2024-03-22T11:00:00;13.1;;;6.1;;
69197;SDS011;56311;50.298;8.514;2024-03-22T11:02:02;11.7;;;6.2;;
69197;SDS011;56311;50.298;8.514;2024-03-22T11:04:04;12.4;;;6.4;;
69197;SDS011;56311;50.298;8.514;2024-03-22T11:06:00;11.9;;;5.5;;
69197;SDS011;56311;50.298;8.514;2024-03-22T11:08:00;10.8;;;6.1;;
69197;SDS011;56311;50.298;8.514;2024-03-22T11:10:01;12.0;;;5.8;;
69197;SDS011;56311;50.298;8.514;2024-03-22T11:12:00;9.2;;;5.8;;
69197;SDS011;56311;50.298;8.514;2024-03-22T11:14:00;10.8;;;6.7;;
69197;SDS011;56311;50.298;8.514;2024-03-22T11:16:00;11.9;;;6.2;;
69197;SDS011;56311;50.298;8.514;2024-03-22T11:18:00;13.1;;;7.4;;
69197;SDS011;56311;50.298;8.514;2024-03-22T11:20:00;10.5;;;6.0;;
69197;SDS011;56311;50.298;8.514;2024-03-22T11:22:00;10.1;;;5.8;;
69197;SDS011;56311;50.298;8.514;2024-03-22T11:24:00;9.6;;;5.5;;
69197;SDS011;56311;50.298;8.514;2024-03-22T11:26:00;10.1;;;5.8;;
69197;SDS011;56311;50.298;8.514;2024-03-22T11:28:00;9.7;;;5.8;;
69197;SDS011;56311;50.298;8.514;2024-03-22T11:30:01;11.8;;;6.2;;
69197;SDS011;56311;50.298;8.514;2024-03-22T11:32:00;10.3;;;6.0;;
69197;SDS011;56311;50.298;8.514;2024-03-22T11:34:00;10.0;;;6.0;;
69197;SDS011;56311;50.298;8.514;2024-03-22T11:36:00;11.0;;;6.3;;
69197;SDS011;56311;50.298;8.514;2024-03-22T11:38:01;10.9;;;6.7;;
69197;SDS011;56311;50.298;8.514;2024-03-22T11:40:00;12.5;;;6.7;;
69197;SDS011;56311;50.298;8.514;2024-03-22T11:42:00;11.7;;;5.8;;
69197;SDS011;56311;50.298;8.514;2024-03-22T11:44:00;10.1;;;6.0;;
69197;SDS011;56311;50.298;8.514;2024-03-22T11:46:00;13.5;;;9.0;;
69197;SDS011;56311;50.298;8.514;2024-03-22T11:48:01;10.3;;;6.4;;
69197;SDS011;56311;50.298;8.514;2024-03-22T11:50:01;11.5;;;7.1;;
69197;SDS011;56311;50.298;8.514;2024-03-22T11:52:00;11.5;;;7.0;;
69197;SDS011;56311;50.298;8.514;2024-03-22T11:54:00;12.8;;;7.2;;
69197;SDS011;56311;50.298;8.514;2024-03-22T11:56:00;13.8;;;6.6;;
69197;SDS011;56311;50.298;8.514;2024-03-22T11:58:00;11.2;;;6.4;;
69197;SDS011;56311;50.298;8.514;2024-03-22T12:00:01;11.4;;;6.1;;
69197;SDS011;56311;50.298;8.514;2024-03-22T12:02:00;12.7;;;6.8;;
69197;SDS011;56311;50.298;8.514;2024-03-22T12:04:00;11.1;;;6.5;;
69197;SDS011;56311;50.298;8.514;2024-03-22T12:06:00;11.0;;;6.7;;
69197;SDS011;56311;50.298;8.514;2024-03-22T12:08:00;10.9;;;6.6;;
69197;SDS011;56311;50.298;8.514;2024-03-22T12:10:00;27.0;;;23.9;;
69197;SDS011;56311;50.298;8.514;2024-03-22T12:12:00;39.1;;;33.7;;